Terminal Aerodrome Forecast
Issued by NWS

Current Version | Previous Version | Text Only | Print | Product List | Glossary On
Versions: 1 2 3 4 5 6 7 8 9 10 11 12 13 14 15 16 17 18 19 20 21 22 23 24 25 26 27 28 29 30 31 32 33 34 35 36
000
FTAK31 PANC 291319 AAA
TAFADQ
TAF AMD
PADQ 291319Z 2913/3012 28005KT P6SM -RA OVC070
     FM291700 VRB04KT P6SM -RA SCT030 OVC045
     FM292200 34007KT P6SM VCSH FEW030 OVC050
     FM300400 30012G20KT P6SM VCSH FEW035 BKN070
     FM300800 29020G30KT P6SM FEW040 SCT150=

USA.gov is the U.S. government's official web portal to all federal, state and local government web resources and services.